< Typhoon 196307 1963 Season Typhoon 196309 >
Typhoon 196308 (AGNES)
General InformationTrack Information on Google Maps || Disaster Info.ResourceGoogle EarthGE AnimationAtom FeedGeoJSON
Detalied Best Track (Time Zone = UTC)
Year Month Day Hour Lat. Long. Pressure (hPa) Wind (kt) Class Image Chart
1963 7 15 18 10.7 143.6 1008 0 2 -- Chart
1963 7 16 00 11.0 142.5 1008 0 2 -- Chart
1963 7 16 06 11.2 141.4 1008 0 2 -- Chart
1963 7 16 12 11.5 140.3 1008 0 2 -- Chart
1963 7 16 18 12.0 139.1 1006 0 2 -- Chart
1963 7 17 00 12.5 137.9 1006 0 2 -- Chart
1963 7 17 06 12.8 136.6 1004 0 2 -- Chart
1963 7 17 12 13.2 135.2 1004 0 2 -- Chart
1963 7 17 18 13.8 134.0 1004 0 2 -- Chart
1963 7 18 00 14.2 132.8 1002 0 2 -- Chart
1963 7 18 06 14.7 131.7 1000 0 9 -- Chart
1963 7 18 12 15.2 130.4 998 0 9 -- Chart
1963 7 18 18 15.8 129.3 998 0 9 -- Chart
1963 7 19 00 16.6 127.6 996 0 9 -- Chart
1963 7 19 06 17.3 126.4 996 0 9 -- Chart
1963 7 19 12 17.5 125.4 995 0 9 -- Chart
1963 7 19 18 17.7 124.6 995 0 9 -- Chart
1963 7 20 00 17.8 123.2 995 0 9 -- Chart
1963 7 20 06 18.1 122.0 995 0 9 -- Chart
1963 7 20 12 18.4 120.8 995 0 9 -- Chart
1963 7 20 18 18.7 119.7 995 0 9 -- Chart
1963 7 21 00 19.1 118.2 995 0 9 -- Chart
1963 7 21 06 19.6 116.9 995 0 9 -- Chart
1963 7 21 12 20.1 115.7 995 0 9 -- Chart
1963 7 21 18 20.3 114.3 995 0 9 -- Chart
1963 7 22 00 20.6 113.1 995 0 9 -- Chart
1963 7 22 06 20.9 112.0 992 0 9 -- Chart
1963 7 22 12 21.0 111.0 995 0 9 -- Chart
1963 7 22 18 21.5 110.0 996 0 9 -- Chart
1963 7 23 00 21.7 108.9 996 0 9 -- Chart
1963 7 23 06 21.5 108.0 996 0 2 -- Chart
1963 7 23 12 21.5 107.0 996 0 2 -- Chart
1963 7 23 18 21.4 106.8 998 0 2 -- Chart
1963 7 24 00 21.4 106.3 998 0 2 -- Chart
1963 7 24 06 21.3 105.8 998 0 2 -- Chart
1963 7 24 12 21.3 105.5 998 0 2 -- Chart
1963 7 24 18 21.3 105.0 1002 0 2 -- Chart
Japan Meteorological Agency Best Track Data | Correction Date : 1989-06-01
< Typhoon 196307 1963 Season Typhoon 196309 >

Help